Terminal Aerodrome Forecast
Issued by NWS

Home | Current Version | Previous Version | Text Only | Print | Product List | Glossary On
Versions: 1 2 3 4 5 6 7 8 9 10 11 12 13 14
000
FTAK31 PAFA 300541
TAFAMC
TAF
PAMC 300541Z 3006/3106 24005KT P6SM VCSH SCT025 BKN060
      TEMPO 3006/3008 6SM -SHRA BR BKN025
     FM301600 25008KT P6SM SCT025=

USA.gov is the U.S. government's official web portal to all federal, state and local government web resources and services.